createdAt,value
2018-04-17T00:00:57.386Z,35.78
2018-04-17T00:02:03.923Z,37.20
2018-04-17T00:03:09.694Z,34.03
2018-04-17T00:04:16.233Z,34.80
2018-04-17T00:05:22.024Z,31.77
2018-04-17T00:06:27.798Z,33.35
2018-04-17T00:07:33.569Z,39.30
2018-04-17T00:08:39.339Z,32.20
2018-04-17T00:09:45.099Z,34.85
2018-04-17T00:10:50.903Z,35.40
2018-04-17T00:11:57.450Z,33.03
2018-04-17T00:13:03.203Z,34.22
2018-04-17T00:14:08.979Z,32.53
2018-04-17T00:15:14.765Z,35.35
2018-04-17T00:16:20.561Z,32.42
2018-04-17T00:17:26.326Z,33.03
2018-04-17T00:18:32.096Z,33.70
2018-04-17T00:19:37.862Z,36.85
2018-04-17T00:20:44.392Z,36.08
2018-04-17T00:21:50.249Z,34.63
2018-04-17T00:22:56.043Z,33.47
2018-04-17T00:24:01.671Z,33.80
2018-04-17T00:25:07.439Z,35.20
2018-04-17T00:26:13.263Z,33.30
2018-04-17T00:27:18.719Z,35.38
2018-04-17T00:28:25.804Z,34.70
2018-04-17T00:29:31.580Z,34.90
2018-04-17T00:30:38.136Z,35.28
2018-04-17T00:31:44.696Z,37.35
2018-04-17T00:32:51.339Z,34.38
2018-04-17T00:33:57.099Z,38.20
2018-04-17T00:35:03.619Z,36.30
2018-04-17T00:36:09.383Z,36.28
2018-04-17T00:37:15.167Z,33.67
2018-04-17T00:38:20.955Z,38.13
2018-04-17T00:39:26.730Z,36.25
2018-04-17T00:40:33.252Z,35.58
2018-04-17T00:41:39.018Z,32.92
2018-04-17T00:42:45.555Z,37.30
2018-04-17T00:43:51.151Z,32.75
2018-04-17T00:44:56.918Z,35.38
2018-04-17T00:46:02.894Z,36.75
2018-04-17T00:47:08.664Z,36.88
2018-04-17T00:48:15.194Z,36.53
2018-04-17T00:49:22.508Z,33.38
2018-04-17T00:50:28.302Z,34.80
2018-04-17T00:51:34.071Z,33.58
2018-04-17T00:52:40.606Z,33.60
2018-04-17T00:53:54.058Z,33.88
2018-04-17T00:55:00.620Z,36.50
2018-04-17T00:56:07.147Z,36.05
2018-04-17T00:57:12.915Z,32.97
2018-04-17T00:58:18.689Z,35.13
2018-04-17T00:59:24.459Z,36.63
2018-04-17T01:00:30.247Z,36.22
2018-04-17T01:01:36.913Z,37.15
2018-04-17T01:02:43.460Z,35.72
2018-04-17T01:03:49.240Z,36.00
2018-04-17T01:04:55.004Z,38.50
2018-04-17T01:06:00.825Z,36.67
2018-04-17T01:07:06.588Z,37.90
2018-04-17T01:08:12.151Z,36.60
2018-04-17T01:09:17.976Z,38.58
2018-04-17T01:10:23.749Z,37.97
2018-04-17T01:11:29.543Z,37.42
2018-04-17T01:12:35.435Z,39.45
2018-04-17T01:13:41.214Z,36.92
2018-04-17T01:14:46.972Z,39.13
2018-04-17T01:15:52.747Z,38.83
2018-04-17T01:16:58.545Z,37.80
2018-04-17T01:18:04.319Z,44.25
2018-04-17T01:19:10.088Z,39.03
2018-04-17T01:20:15.883Z,35.95
2018-04-17T01:21:21.670Z,40.50
2018-04-17T01:22:27.258Z,41.95
2018-04-17T01:23:33.029Z,39.63
2018-04-17T01:24:38.787Z,41.90
2018-04-17T01:25:44.569Z,39.58
2018-04-17T01:26:50.448Z,39.70
2018-04-17T01:27:56.244Z,42.15
2018-04-17T01:29:02.011Z,42.62
2018-04-17T01:30:07.810Z,41.88
2018-04-17T01:31:14.401Z,45.78
2018-04-17T01:32:20.168Z,47.55
2018-04-17T01:33:25.759Z,48.65
2018-04-17T01:34:32.299Z,49.47
2018-04-17T01:35:38.069Z,43.08
2018-04-17T01:36:43.923Z,46.47
2018-04-17T01:37:49.687Z,44.70
2018-04-17T01:38:55.513Z,43.45
2018-04-17T01:40:01.299Z,44.95
2018-04-17T01:41:07.079Z,48.60
2018-04-17T01:42:13.620Z,44.83
2018-04-17T01:43:20.154Z,47.80
2018-04-17T01:44:25.951Z,48.70
2018-04-17T01:45:31.739Z,48.10
2018-04-17T01:46:37.512Z,49.97
2018-04-17T01:47:44.047Z,46.97
2018-04-17T01:48:49.807Z,45.40
2018-04-17T01:49:56.379Z,48.25
2018-04-17T01:51:02.905Z,46.35
2018-04-17T01:52:08.669Z,53.55
2018-04-17T01:53:14.979Z,49.80
2018-04-17T01:54:20.771Z,46.63
2018-04-17T01:55:26.552Z,51.83
2018-04-17T01:56:32.323Z,47.47
2018-04-17T01:57:38.103Z,47.17
2018-04-17T01:58:44.652Z,47.90
2018-04-17T01:59:50.454Z,51.83
2018-04-17T02:00:56.243Z,54.00
2018-04-17T02:02:02.783Z,50.33
2018-04-17T02:03:08.880Z,50.35
2018-04-17T02:04:14.820Z,50.78
2018-04-17T02:05:20.669Z,54.58
2018-04-17T02:06:26.499Z,52.28
2018-04-17T02:07:33.027Z,51.95
2018-04-17T02:08:38.795Z,54.10
2018-04-17T02:09:45.327Z,54.40
2018-04-17T02:10:51.086Z,52.80
2018-04-17T02:11:57.657Z,54.53
2018-04-17T02:13:04.186Z,55.72
2018-04-17T02:14:09.955Z,50.10
2018-04-17T02:15:16.587Z,54.67
2018-04-17T02:16:23.122Z,60.15
2018-04-17T02:17:28.915Z,56.08
2018-04-17T02:18:35.451Z,55.67
2018-04-17T02:19:41.222Z,56.30
2018-04-17T02:20:47.754Z,57.40
2018-04-17T02:21:53.526Z,55.42
2018-04-17T02:23:00.084Z,55.50
2018-04-17T02:24:06.633Z,55.63
2018-04-17T02:25:13.176Z,55.67
2018-04-17T02:26:18.943Z,54.50
2018-04-17T02:27:25.479Z,60.95
2018-04-17T02:28:30.952Z,57.85
2018-04-17T02:29:36.719Z,61.78
2018-04-17T02:30:42.504Z,61.13
2018-04-17T02:31:48.274Z,58.05
2018-04-17T02:32:55.013Z,61.67
2018-04-17T02:34:00.808Z,58.10
2018-04-17T02:35:06.592Z,55.72
2018-04-17T02:36:12.353Z,59.80
2018-04-17T02:37:18.907Z,64.93
2018-04-17T02:38:24.686Z,63.25
2018-04-17T02:39:30.469Z,58.10
2018-04-17T02:40:36.239Z,60.12
2018-04-17T02:41:42.783Z,58.17
2018-04-17T02:42:48.605Z,61.33
2018-04-17T02:43:54.383Z,63.67
2018-04-17T02:45:00.944Z,62.40
2018-04-17T02:46:07.487Z,58.13
2018-04-17T02:47:13.260Z,60.45
2018-04-17T02:48:19.026Z,63.42
2018-04-17T02:49:24.794Z,59.35
2018-04-17T02:50:30.371Z,67.18
2018-04-17T02:51:36.908Z,59.53
2018-04-17T02:52:42.683Z,61.35
2018-04-17T02:53:48.464Z,67.37
2018-04-17T02:54:54.009Z,65.32
2018-04-17T02:55:59.805Z,56.17
2018-04-17T02:57:05.585Z,64.28
2018-04-17T02:58:11.347Z,59.80
2018-04-17T02:59:17.113Z,63.33
2018-04-17T03:00:23.806Z,65.55
2018-04-17T03:01:29.646Z,59.45
2018-04-17T03:02:35.425Z,60.40
2018-04-17T03:03:41.195Z,67.37
2018-04-17T03:04:47.775Z,62.22
2018-04-17T03:05:54.323Z,60.55
2018-04-17T03:07:00.920Z,62.72
2018-04-17T03:08:06.701Z,61.72
2018-04-17T03:09:12.475Z,61.10
2018-04-17T03:10:19.052Z,62.58
2018-04-17T03:11:24.846Z,63.50
2018-04-17T03:12:30.665Z,63.80
2018-04-17T03:13:36.471Z,64.85
2018-04-17T03:14:42.326Z,61.37
2018-04-17T03:15:48.100Z,63.03
2018-04-17T03:16:53.904Z,60.17
2018-04-17T03:17:59.701Z,61.10
2018-04-17T03:19:05.475Z,59.22
2018-04-17T03:20:12.029Z,58.53
2018-04-17T03:21:18.574Z,63.95
2018-04-17T03:22:25.851Z,69.45
2018-04-17T03:23:31.646Z,64.60
2018-04-17T03:24:37.420Z,65.00
2018-04-17T03:25:44.703Z,64.45
2018-04-17T03:26:50.475Z,61.90
2018-04-17T03:27:57.014Z,60.53
2018-04-17T03:29:02.840Z,62.97
2018-04-17T03:30:08.610Z,66.28
2018-04-17T03:31:15.150Z,64.95
2018-04-17T03:32:20.923Z,58.15
2018-04-17T03:33:27.247Z,59.90
2018-04-17T03:34:32.802Z,60.70
2018-04-17T03:35:39.347Z,62.75
2018-04-17T03:36:45.107Z,59.85
2018-04-17T03:37:51.899Z,55.12
2018-04-17T03:38:57.671Z,60.78
2018-04-17T03:40:03.471Z,59.50
2018-04-17T03:41:10.003Z,62.03
2018-04-17T03:42:15.771Z,55.90
2018-04-17T03:43:22.305Z,58.45
2018-04-17T03:44:28.075Z,65.82
2018-04-17T03:45:33.867Z,58.72
2018-04-17T03:46:39.294Z,64.07
2018-04-17T03:47:45.066Z,63.28
2018-04-17T03:48:50.834Z,58.85
2018-04-17T03:49:56.626Z,66.62
2018-04-17T03:51:02.428Z,60.83
2018-04-17T03:52:08.197Z,58.55
2018-04-17T03:53:13.983Z,63.42
2018-04-17T03:54:19.751Z,59.50
2018-04-17T03:55:25.577Z,61.80
2018-04-17T03:56:32.131Z,61.72
2018-04-17T03:57:38.677Z,62.10
2018-04-17T03:58:46.053Z,62.72
2018-04-17T03:59:51.819Z,62.45
2018-04-17T04:00:58.402Z,60.20
2018-04-17T04:02:04.299Z,62.72
2018-04-17T04:03:10.114Z,61.72
2018-04-17T04:04:15.944Z,65.85
2018-04-17T04:05:21.750Z,64.30
2018-04-17T04:06:27.561Z,60.05
2018-04-17T04:07:33.364Z,60.28
2018-04-17T04:08:39.134Z,59.17
2018-04-17T04:09:45.183Z,61.47
2018-04-17T04:10:50.948Z,55.58
2018-04-17T04:11:56.734Z,61.50
2018-04-17T04:13:02.519Z,55.67
2018-04-17T04:14:08.282Z,60.03
2018-04-17T04:15:14.059Z,62.10
2018-04-17T04:16:36.565Z,62.20
2018-04-17T04:19:41.956Z,61.42
2018-04-17T04:21:04.687Z,62.80
2018-04-17T04:22:27.231Z,64.00
2018-04-17T04:23:49.929Z,59.72
2018-04-17T04:26:47.003Z,59.60
2018-04-17T04:27:53.916Z,58.42
2018-04-17T04:28:59.731Z,58.87
2018-04-17T04:30:04.891Z,60.67
2018-04-17T04:31:10.663Z,61.13
2018-04-17T04:32:16.979Z,59.25
2018-04-17T04:33:22.742Z,56.03
2018-04-17T04:34:28.306Z,57.88
2018-04-17T04:35:34.838Z,53.85
2018-04-17T04:36:40.612Z,60.00
2018-04-17T04:37:46.472Z,56.10
2018-04-17T04:38:52.260Z,63.42
2018-04-17T04:39:58.048Z,54.25
2018-04-17T04:41:03.825Z,54.70
2018-04-17T04:42:09.575Z,53.70
2018-04-17T04:43:15.346Z,55.95
2018-04-17T04:44:21.871Z,57.97
2018-04-17T04:45:27.654Z,54.42
2018-04-17T04:46:34.221Z,53.25
2018-04-17T04:47:40.744Z,54.97
2018-04-17T04:48:47.288Z,55.95
2018-04-17T04:49:53.057Z,55.08
2018-04-17T04:50:58.639Z,56.20
2018-04-17T04:52:04.428Z,55.72
2018-04-17T04:53:11.247Z,53.90
2018-04-17T04:54:17.021Z,52.90
2018-04-17T04:55:22.808Z,53.72
2018-04-17T04:56:29.387Z,52.30
2018-04-17T04:57:35.151Z,51.22
2018-04-17T04:58:40.939Z,60.00
2018-04-17T04:59:46.701Z,53.72
2018-04-17T05:00:53.233Z,54.90
2018-04-17T05:01:59.043Z,54.53
2018-04-17T05:03:04.859Z,54.20
2018-04-17T05:04:10.656Z,50.95
2018-04-17T05:05:17.948Z,52.78
2018-04-17T05:06:24.494Z,52.55
2018-04-17T05:07:31.199Z,47.78
2018-04-17T05:08:36.988Z,50.78
2018-04-17T05:09:42.814Z,47.22
2018-04-17T05:10:48.593Z,52.33
2018-04-17T05:11:55.193Z,51.72
2018-04-17T05:13:01.887Z,53.17
2018-04-17T05:14:07.496Z,46.13
2018-04-17T05:15:13.278Z,48.70
2018-04-17T05:16:18.873Z,51.78
2018-04-17T05:17:24.645Z,51.25
2018-04-17T05:18:30.498Z,51.17
2018-04-17T05:19:36.504Z,45.20
2018-04-17T05:20:42.280Z,44.13
2018-04-17T05:21:48.060Z,49.92
2018-04-17T05:22:54.998Z,45.10
2018-04-17T05:24:00.803Z,42.15
2018-04-17T05:25:06.603Z,44.75
2018-04-17T05:26:12.683Z,44.03
2018-04-17T05:27:19.224Z,43.15
2018-04-17T05:28:24.997Z,40.55
2018-04-17T05:29:31.592Z,41.05
2018-04-17T05:30:38.173Z,41.72
2018-04-17T05:31:44.801Z,41.97
2018-04-17T05:32:50.559Z,42.55
2018-04-17T05:33:56.314Z,41.70
2018-04-17T05:35:02.104Z,42.83
2018-04-17T05:36:08.657Z,40.63
2018-04-17T05:37:15.184Z,40.83
2018-04-17T05:38:20.962Z,41.28
2018-04-17T05:39:27.492Z,38.88
2018-04-17T05:40:33.304Z,41.00
2018-04-17T05:41:39.071Z,38.88
2018-04-17T05:42:44.843Z,38.20
2018-04-17T05:43:50.600Z,38.03
2018-04-17T05:44:57.132Z,39.92
2018-04-17T05:46:02.922Z,33.42
2018-04-17T05:47:08.711Z,38.75
2018-04-17T05:48:14.484Z,38.95
2018-04-17T05:49:20.678Z,42.72
2018-04-17T05:50:26.436Z,39.42
2018-04-17T05:51:32.224Z,37.65
2018-04-17T05:52:37.995Z,38.75
2018-04-17T05:53:43.759Z,39.30
2018-04-17T05:54:49.540Z,39.03
2018-04-17T05:55:56.123Z,38.85
2018-04-17T05:57:02.112Z,38.50
2018-04-17T05:58:07.888Z,41.50
2018-04-17T05:59:14.503Z,37.45
2018-04-17T06:00:20.260Z,37.78
2018-04-17T06:01:25.796Z,33.80
2018-04-17T06:02:31.054Z,38.97
2018-04-17T06:03:37.623Z,36.05
2018-04-17T06:04:43.404Z,36.40
2018-04-17T06:05:49.695Z,34.10
2018-04-17T06:06:55.461Z,35.88
2018-04-17T06:08:02.042Z,32.05
2018-04-17T06:09:07.166Z,36.33
2018-04-17T06:10:12.951Z,31.67
2018-04-17T06:11:19.475Z,38.28
2018-04-17T06:12:25.243Z,33.20
2018-04-17T06:13:31.380Z,37.65
2018-04-17T06:14:36.922Z,34.22
2018-04-17T06:15:42.697Z,32.63
2018-04-17T06:16:48.465Z,34.60
2018-04-17T06:17:54.999Z,29.58
2018-04-17T06:19:02.295Z,38.10
2018-04-17T06:20:08.819Z,39.05
2018-04-17T06:21:14.591Z,36.42
2018-04-17T06:22:21.118Z,33.40
2018-04-17T06:23:26.893Z,32.47
2018-04-17T06:24:33.464Z,31.25
2018-04-17T06:25:40.039Z,29.63
2018-04-17T06:26:45.812Z,31.10
2018-04-17T06:27:51.591Z,34.35
2018-04-17T06:28:58.130Z,30.52
2018-04-17T06:30:03.687Z,26.00
2018-04-17T06:31:10.227Z,31.95
2018-04-17T06:32:16.002Z,31.05
2018-04-17T06:33:22.538Z,30.08
2018-04-17T06:34:29.813Z,33.13
2018-04-17T06:35:35.651Z,30.83
2018-04-17T06:36:42.178Z,29.52
2018-04-17T06:37:47.959Z,30.65
2018-04-17T06:38:53.739Z,28.40
2018-04-17T06:39:59.505Z,25.90
2018-04-17T06:41:05.299Z,32.90
2018-04-17T06:42:11.888Z,30.25
2018-04-17T06:43:17.732Z,31.70
2018-04-17T06:44:23.708Z,25.37
2018-04-17T06:45:29.481Z,25.52
2018-04-17T06:46:35.365Z,30.50
2018-04-17T06:47:41.219Z,28.85
2018-04-17T06:48:47.133Z,28.62
2018-04-17T06:49:53.671Z,27.98
2018-04-17T06:50:59.455Z,24.75
2018-04-17T06:52:05.230Z,26.50
2018-04-17T06:53:11.040Z,26.17
2018-04-17T06:54:17.581Z,26.62
2018-04-17T06:55:24.119Z,28.62
2018-04-17T06:56:29.900Z,24.85
2018-04-17T06:57:36.455Z,25.80
2018-04-17T06:58:42.216Z,25.75
2018-04-17T06:59:47.976Z,25.58
2018-04-17T07:00:53.751Z,24.65
2018-04-17T07:02:00.283Z,23.05
2018-04-17T07:03:06.089Z,22.42
2018-04-17T07:04:11.857Z,22.65
2018-04-17T07:05:17.654Z,22.58
2018-04-17T07:06:23.616Z,22.15
2018-04-17T07:07:29.379Z,22.23
2018-04-17T07:08:35.184Z,21.75
2018-04-17T07:09:41.048Z,23.90
2018-04-17T07:10:46.812Z,18.87
2018-04-17T07:11:52.583Z,18.10
2018-04-17T07:12:58.355Z,21.02
2018-04-17T07:14:05.368Z,20.08
2018-04-17T07:15:10.988Z,20.30
2018-04-17T07:16:17.444Z,19.83
2018-04-17T07:17:23.659Z,19.25
2018-04-17T07:18:30.211Z,21.45
2018-04-17T07:19:36.007Z,17.73
2018-04-17T07:20:42.593Z,19.87
2018-04-17T07:21:48.377Z,18.58
2018-04-17T07:22:54.711Z,20.35
2018-04-17T07:24:00.712Z,17.67
2018-04-17T07:25:06.501Z,17.92
2018-04-17T07:26:12.502Z,19.65
2018-04-17T07:27:18.266Z,17.87
2018-04-17T07:28:23.714Z,17.33
2018-04-17T07:29:29.502Z,17.65
2018-04-17T07:30:35.494Z,19.23
2018-04-17T07:31:41.267Z,19.83
2018-04-17T07:32:47.811Z,17.95
2018-04-17T07:33:55.140Z,20.33
2018-04-17T07:35:01.057Z,19.20
2018-04-17T07:36:07.102Z,19.67
2018-04-17T07:37:12.875Z,22.50
2018-04-17T07:38:18.663Z,19.70
2018-04-17T07:39:24.434Z,18.95
2018-04-17T07:40:31.011Z,19.45
2018-04-17T07:41:36.986Z,21.17
2018-04-17T07:42:42.752Z,20.70
2018-04-17T07:43:48.532Z,19.50
2018-04-17T07:44:55.068Z,19.48
2018-04-17T07:46:01.067Z,22.10
2018-04-17T07:47:30.934Z,19.15
2018-04-17T07:48:50.377Z,19.98
2018-04-17T07:49:56.194Z,17.60
2018-04-17T07:51:01.964Z,24.73
2018-04-17T07:52:07.737Z,22.08
2018-04-17T07:53:14.302Z,23.30
2018-04-17T07:54:20.836Z,21.40
2018-04-17T07:55:26.617Z,21.50
2018-04-17T07:56:32.393Z,20.37
2018-04-17T07:57:38.171Z,20.52
2018-04-17T07:58:44.788Z,19.50
2018-04-17T07:59:50.558Z,20.10
2018-04-17T08:00:57.834Z,20.25
2018-04-17T08:02:03.621Z,20.55
2018-04-17T08:03:09.438Z,22.15
2018-04-17T08:04:15.255Z,19.37
2018-04-17T08:05:21.039Z,19.90
2018-04-17T08:06:26.806Z,18.75
2018-04-17T08:07:32.583Z,19.33
2018-04-17T08:08:38.360Z,19.40
2018-04-17T08:09:44.155Z,20.15
2018-04-17T08:10:49.934Z,18.90
2018-04-17T08:11:56.521Z,20.25
2018-04-17T08:13:02.455Z,18.42
2018-04-17T08:14:08.308Z,16.55
2018-04-17T08:15:14.115Z,16.10
2018-04-17T08:16:20.660Z,17.08
2018-04-17T08:17:26.426Z,16.75
2018-04-17T08:18:32.644Z,17.40
2018-04-17T08:19:38.421Z,18.30
2018-04-17T08:20:44.988Z,16.10
2018-04-17T08:21:51.535Z,16.02
2018-04-17T08:22:58.130Z,18.85
2018-04-17T08:24:03.899Z,15.80
2018-04-17T08:25:09.717Z,14.13
2018-04-17T08:26:15.508Z,13.57
2018-04-17T08:27:21.276Z,12.90
2018-04-17T08:28:27.822Z,12.95
2018-04-17T08:29:34.381Z,13.93
2018-04-17T08:30:40.923Z,13.48
2018-04-17T08:31:46.723Z,13.35
2018-04-17T08:32:52.494Z,13.60
2018-04-17T08:33:58.280Z,12.85
2018-04-17T08:35:04.824Z,14.60
2018-04-17T08:36:10.609Z,13.38
2018-04-17T08:37:16.396Z,11.52
2018-04-17T08:38:22.186Z,14.60
2018-04-17T08:39:27.963Z,10.88
2018-04-17T08:40:33.732Z,11.70
2018-04-17T08:41:39.512Z,12.65
2018-04-17T08:42:45.379Z,13.23
2018-04-17T08:43:51.309Z,12.57
2018-04-17T08:44:57.080Z,11.93
2018-04-17T08:46:02.857Z,12.52
2018-04-17T08:47:09.413Z,11.73
2018-04-17T08:48:15.194Z,9.13
2018-04-17T08:49:20.957Z,8.85
2018-04-17T08:50:26.707Z,9.55
2018-04-17T08:51:32.680Z,13.75
2018-04-17T08:52:38.452Z,11.52
2018-04-17T08:53:44.266Z,11.65
2018-04-17T08:54:50.057Z,18.67
2018-04-17T08:55:55.812Z,9.95
2018-04-17T08:57:01.591Z,10.95
2018-04-17T08:58:07.360Z,9.90
2018-04-17T08:59:13.910Z,13.35
2018-04-17T09:00:20.498Z,10.52
2018-04-17T09:01:26.262Z,11.82
2018-04-17T09:02:32.081Z,11.65
2018-04-17T09:03:37.834Z,9.32
2018-04-17T09:04:43.669Z,9.90
2018-04-17T09:05:50.382Z,10.57
2018-04-17T09:06:55.901Z,12.05
2018-04-17T09:08:01.663Z,11.65
2018-04-17T09:09:06.528Z,11.55
2018-04-17T09:10:12.316Z,11.73
2018-04-17T09:11:18.093Z,11.60
2018-04-17T09:12:24.404Z,8.05
2018-04-17T09:13:30.220Z,8.80
2018-04-17T09:14:35.963Z,7.30
2018-04-17T09:15:41.755Z,9.77
2018-04-17T09:16:47.503Z,7.43
2018-04-17T09:17:53.578Z,7.82
2018-04-17T09:18:59.328Z,7.72
2018-04-17T09:20:05.330Z,7.35
2018-04-17T09:21:11.428Z,8.27
2018-04-17T09:22:17.182Z,8.38
2018-04-17T09:23:22.709Z,7.32
2018-04-17T09:24:28.454Z,6.65
2018-04-17T09:25:34.215Z,7.47
2018-04-17T09:26:40.003Z,7.62
2018-04-17T09:27:46.524Z,7.87
2018-04-17T09:28:52.262Z,7.68
2018-04-17T09:29:58.341Z,12.85
2018-04-17T09:31:04.091Z,6.47
2018-04-17T09:32:09.889Z,7.15
2018-04-17T09:33:15.726Z,5.90
2018-04-17T09:34:21.632Z,6.95
2018-04-17T09:35:28.151Z,5.68
2018-04-17T09:36:33.907Z,5.75
2018-04-17T09:37:39.683Z,8.38
2018-04-17T09:38:45.444Z,8.23
2018-04-17T09:39:51.043Z,8.43
2018-04-17T09:40:57.567Z,7.95
2018-04-17T09:42:03.323Z,7.93
2018-04-17T09:43:09.108Z,8.00
2018-04-17T09:44:14.950Z,8.85
2018-04-17T09:45:21.511Z,8.65
2018-04-17T09:46:27.271Z,10.20
2018-04-17T09:47:33.295Z,7.50
2018-04-17T09:48:40.338Z,7.68
2018-04-17T09:49:46.080Z,7.25
2018-04-17T09:50:51.841Z,5.95
2018-04-17T09:51:58.369Z,3.92
2018-04-17T09:53:04.110Z,8.73
2018-04-17T09:54:09.884Z,8.02
2018-04-17T09:55:16.399Z,7.70
2018-04-17T09:56:22.176Z,10.82
2018-04-17T09:57:27.595Z,9.43
2018-04-17T09:58:34.161Z,7.47
2018-04-17T09:59:39.696Z,9.13
2018-04-17T10:00:50.738Z,10.85
2018-04-17T10:01:56.522Z,11.10
2018-04-17T10:03:03.050Z,9.77
2018-04-17T10:04:08.807Z,11.02
2018-04-17T10:05:14.600Z,11.25
2018-04-17T10:06:20.364Z,9.68
2018-04-17T10:07:26.164Z,11.40
2018-04-17T10:08:31.921Z,9.73
2018-04-17T10:09:37.687Z,10.15
2018-04-17T10:10:43.480Z,9.35
2018-04-17T10:11:50.223Z,10.07
2018-04-17T10:12:56.000Z,10.07
2018-04-17T10:14:01.754Z,9.68
2018-04-17T10:15:07.495Z,9.40
2018-04-17T10:16:13.292Z,10.63
2018-04-17T10:17:19.816Z,9.85
2018-04-17T10:18:25.578Z,10.43
2018-04-17T10:19:31.330Z,9.90
2018-04-17T10:20:37.087Z,10.05
2018-04-17T10:21:43.398Z,10.23
2018-04-17T10:22:49.166Z,10.30
2018-04-17T10:23:54.947Z,10.30
2018-04-17T10:25:00.711Z,11.52
2018-04-17T10:26:06.466Z,10.52
2018-04-17T10:27:12.030Z,10.85
2018-04-17T10:28:17.804Z,12.18
2018-04-17T10:29:23.568Z,10.05
2018-04-17T10:30:29.335Z,10.60
2018-04-17T10:31:34.868Z,10.18
2018-04-17T10:32:40.663Z,10.55
2018-04-17T10:33:46.416Z,9.88
2018-04-17T10:34:52.284Z,10.25
2018-04-17T10:35:58.051Z,12.10
2018-04-17T10:37:03.834Z,10.43
2018-04-17T10:38:09.630Z,11.57
2018-04-17T10:39:15.398Z,11.50
2018-04-17T10:40:21.699Z,10.20
2018-04-17T10:41:27.475Z,11.38
2018-04-17T10:42:33.370Z,11.98
2018-04-17T10:43:39.171Z,11.10
2018-04-17T10:44:44.935Z,11.48
2018-04-17T10:45:51.504Z,11.93
2018-04-17T10:46:57.275Z,12.90
2018-04-17T10:48:03.051Z,10.38
2018-04-17T10:49:08.847Z,11.90
2018-04-17T10:50:14.619Z,12.32
2018-04-17T10:51:21.160Z,16.17
2018-04-17T10:52:26.964Z,11.65
2018-04-17T10:53:32.816Z,12.25
2018-04-17T10:54:38.611Z,11.55
2018-04-17T10:55:45.157Z,13.23
2018-04-17T10:56:50.928Z,11.38
2018-04-17T10:57:56.714Z,11.23
2018-04-17T10:59:02.476Z,10.85
2018-04-17T11:00:08.040Z,12.80
2018-04-17T11:01:13.806Z,13.05
2018-04-17T11:02:20.343Z,12.30
2018-04-17T11:03:26.111Z,12.70
2018-04-17T11:04:32.639Z,10.88
2018-04-17T11:05:38.431Z,11.73
2018-04-17T11:06:44.198Z,11.68
2018-04-17T11:07:49.988Z,12.57
2018-04-17T11:08:55.854Z,11.80
2018-04-17T11:10:01.611Z,12.75
2018-04-17T11:11:07.396Z,12.37
2018-04-17T11:12:12.977Z,11.88
2018-04-17T11:13:19.598Z,10.43
2018-04-17T11:14:25.368Z,12.43
2018-04-17T11:15:31.142Z,12.07
2018-04-17T11:16:36.951Z,12.25
2018-04-17T11:17:43.483Z,12.18
2018-04-17T11:18:49.253Z,10.82
2018-04-17T11:19:55.781Z,11.85
2018-04-17T11:21:01.547Z,12.35
2018-04-17T11:22:08.123Z,14.32
2018-04-17T11:23:13.959Z,13.48
2018-04-17T11:24:19.887Z,12.25
2018-04-17T11:25:26.419Z,12.05
2018-04-17T11:26:32.190Z,12.77
2018-04-17T11:27:38.754Z,11.88
2018-04-17T11:28:45.299Z,15.48
2018-04-17T11:29:50.880Z,14.02
2018-04-17T11:30:56.661Z,14.35
2018-04-17T11:32:02.439Z,12.57
2018-04-17T11:33:09.024Z,13.27
2018-04-17T11:34:14.802Z,13.82
2018-04-17T11:35:20.659Z,12.95
2018-04-17T11:36:26.432Z,13.38
2018-04-17T11:37:32.968Z,12.45
2018-04-17T11:38:38.775Z,13.20
2018-04-17T11:39:44.230Z,15.80
2018-04-17T11:40:49.999Z,14.55
2018-04-17T11:41:56.558Z,13.18
2018-04-17T11:43:03.130Z,13.68
2018-04-17T11:44:09.102Z,13.00
2018-04-17T11:45:14.906Z,13.52
2018-04-17T11:46:20.665Z,12.50
2018-04-17T11:47:26.446Z,19.37
2018-04-17T11:48:32.240Z,12.23
2018-04-17T11:49:38.791Z,14.38
2018-04-17T11:50:45.130Z,12.37
2018-04-17T11:51:50.907Z,14.68
2018-04-17T11:52:57.439Z,14.07
2018-04-17T11:54:03.227Z,12.02
2018-04-17T11:55:09.372Z,15.30
2018-04-17T11:56:15.143Z,13.32
2018-04-17T11:57:20.913Z,13.43
2018-04-17T11:58:26.682Z,14.68
2018-04-17T11:59:32.234Z,15.57
2018-04-17T12:00:38.031Z,15.23
2018-04-17T12:01:44.847Z,14.82
2018-04-17T12:02:50.629Z,14.00
2018-04-17T12:03:56.176Z,17.42
2018-04-17T12:05:02.755Z,16.65
2018-04-17T12:06:09.315Z,15.02
2018-04-17T12:07:15.858Z,16.67
2018-04-17T12:08:21.399Z,15.38
2018-04-17T12:09:27.236Z,16.70
2018-04-17T12:10:32.784Z,16.12
2018-04-17T12:11:38.577Z,14.48
2018-04-17T12:12:44.123Z,15.20
2018-04-17T12:13:49.669Z,16.17
2018-04-17T12:14:55.442Z,14.82
2018-04-17T12:16:01.751Z,14.95
2018-04-17T12:17:07.544Z,16.48
2018-04-17T12:18:14.139Z,15.82
2018-04-17T12:19:20.140Z,14.27
2018-04-17T12:20:26.076Z,15.18
2018-04-17T12:21:32.001Z,14.50
2018-04-17T12:22:37.789Z,17.80
2018-04-17T12:23:44.348Z,14.15
2018-04-17T12:24:50.900Z,15.82
2018-04-17T12:25:57.446Z,17.37
2018-04-17T12:27:03.243Z,14.85
2018-04-17T12:28:09.050Z,15.60
2018-04-17T12:29:15.584Z,18.35
2018-04-17T12:30:22.131Z,16.30
2018-04-17T12:31:27.912Z,17.62
2018-04-17T12:32:34.526Z,16.33
2018-04-17T12:33:40.405Z,15.85
2018-04-17T12:34:46.188Z,17.42
2018-04-17T12:35:51.955Z,16.02
2018-04-17T12:36:57.733Z,15.82
2018-04-17T12:38:03.543Z,15.65
2018-04-17T12:39:09.328Z,17.10
2018-04-17T12:40:15.869Z,15.13
2018-04-17T12:41:21.679Z,18.42
2018-04-17T12:42:27.449Z,19.50
2018-04-17T12:43:33.235Z,15.27
2018-04-17T12:44:39.024Z,17.77
2018-04-17T12:45:44.801Z,18.12
2018-04-17T12:46:51.336Z,17.35
2018-04-17T12:47:57.117Z,16.73
2018-04-17T12:49:02.908Z,16.50
2018-04-17T12:50:08.823Z,17.55
2018-04-17T12:51:14.594Z,20.48
2018-04-17T12:52:20.467Z,19.37
2018-04-17T12:53:27.014Z,17.45
2018-04-17T12:54:32.784Z,17.42
2018-04-17T12:55:39.367Z,18.77
2018-04-17T12:56:45.142Z,19.37
2018-04-17T12:57:50.915Z,19.12
2018-04-17T12:58:57.461Z,17.10
2018-04-17T13:00:04.234Z,17.62
2018-04-17T13:01:10.031Z,20.75
2018-04-17T13:02:15.807Z,18.45
2018-04-17T13:03:21.585Z,18.17
2018-04-17T13:04:27.363Z,17.05
2018-04-17T13:05:33.133Z,25.27
2018-04-17T13:06:38.932Z,19.23
2018-04-17T13:07:44.750Z,17.95
2018-04-17T13:08:50.698Z,18.52
2018-04-17T13:09:56.917Z,18.27
2018-04-17T13:11:02.696Z,19.48
2018-04-17T13:12:08.301Z,17.37
2018-04-17T13:13:14.068Z,19.80
2018-04-17T13:14:20.859Z,18.30
2018-04-17T13:15:26.631Z,18.33
2018-04-17T13:16:32.416Z,16.35
2018-04-17T13:17:38.209Z,22.65
2018-04-17T13:18:43.997Z,16.87
2018-04-17T13:19:50.570Z,15.65
2018-04-17T13:20:57.106Z,18.30
2018-04-17T13:23:22.022Z,19.08
2018-04-17T13:24:27.565Z,16.67
2018-04-17T13:25:33.344Z,16.15
2018-04-17T13:26:38.883Z,17.42
2018-04-17T13:27:44.690Z,16.05
2018-04-17T13:28:50.485Z,18.77
2018-04-17T13:29:56.252Z,16.58
2018-04-17T13:31:02.787Z,16.73
2018-04-17T13:32:08.565Z,15.57
2018-04-17T13:33:15.099Z,17.85
2018-04-17T13:34:20.967Z,17.55
2018-04-17T13:35:27.511Z,16.85
2018-04-17T13:36:32.950Z,16.37
2018-04-17T13:37:39.517Z,19.20
2018-04-17T13:38:46.309Z,17.12
2018-04-17T13:39:52.140Z,16.33
2018-04-17T13:40:57.683Z,19.17
2018-04-17T13:42:03.612Z,18.45
2018-04-17T13:43:09.432Z,17.58
2018-04-17T13:44:15.207Z,16.65
2018-04-17T13:45:21.042Z,16.70
2018-04-17T13:46:27.938Z,20.20
2018-04-17T13:47:33.723Z,17.45
2018-04-17T13:48:39.267Z,20.37
2018-04-17T13:49:45.139Z,18.37
2018-04-17T13:50:50.948Z,15.43
2018-04-17T13:51:57.483Z,18.30
2018-04-17T13:53:03.415Z,18.62
2018-04-17T13:54:09.203Z,17.95
2018-04-17T13:55:15.174Z,16.75
2018-04-17T13:56:20.979Z,17.15
2018-04-17T13:57:26.757Z,15.85
2018-04-17T13:58:32.536Z,15.32
2018-04-17T13:59:38.313Z,19.48
2018-04-17T14:00:44.087Z,17.52
2018-04-17T14:01:49.899Z,17.02
2018-04-17T14:02:55.693Z,19.65
2018-04-17T14:04:01.472Z,19.48
2018-04-17T14:05:07.258Z,16.70
2018-04-17T14:06:13.027Z,18.62
2018-04-17T14:07:18.819Z,21.48
2018-04-17T14:08:25.359Z,18.85
2018-04-17T14:09:31.167Z,18.10
2018-04-17T14:10:36.936Z,18.10
2018-04-17T14:11:42.708Z,15.98
2018-04-17T14:12:49.279Z,17.73
2018-04-17T14:13:55.818Z,18.55
2018-04-17T14:15:01.595Z,18.50
2018-04-17T14:16:07.380Z,17.02
2018-04-17T14:17:13.202Z,18.70
2018-04-17T14:18:19.195Z,18.30
2018-04-17T14:19:24.729Z,20.40